Bridgwater, United Kingdom
Current Conditions -  °F | °C
As of 4:50 AM on Tuesday 21 Oct 2014 (Local Time) from EGDY Reporting Station
Light Rain Light Rain  
Wind Chill: 14°   Ceiling: 4000
Heat Index: 14°   Visibility: 6mi
Dew Point: 11°   Wind: 15mph
Humidity: 82%   Direction: 220°SW
Pressure: 29.68"   Gusts: 28mph
Location:  51.13°N, 3°W
Report Text: EGDY 210350Z 22013G24KT 9999 -RADZ FEW012 SCT020 BKN040 14/11 Q1005 WHT
Loading
Personal Weather Stations






























Interactive Weather Map
Tropical Storm Tracking
New forecast layout! Learn more

10-Day Weather Forecast

Advertisements
Track Severe Weather on mobile